Time;durP1;ratioP1;P1;durP2;ratioP2;P2;SDS_P1;SDS_P2;PMS_P1;PMS_P2;Temp;Humidity;BMP_temperature;BMP_pressure;BME280_temperature;BME280_humidity;BME280_pressure;Samples;Min_cycle;Max_cycle;Signal;HPM_P1;HPM_P2
2022/02/13 00:00:07;;;;;;;8.65;5.30;;;4.00;64.10;;;;;;5011639;28;20492;-74
2022/02/13 00:02:33;;;;;;;9.43;5.70;;;4.00;64.10;;;;;;5011459;28;20034;-74
2022/02/13 00:04:59;;;;;;;9.68;5.72;;;4.00;64.30;;;;;;5012383;28;20092;-74
2022/02/13 00:07:24;;;;;;;11.00;5.60;;;3.90;64.40;;;;;;5011193;28;20026;-75
2022/02/13 00:09:50;;;;;;;9.00;4.78;;;3.90;64.40;;;;;;5011873;28;20030;-74
2022/02/13 00:12:15;;;;;;;10.05;5.47;;;4.00;64.50;;;;;;5011857;28;20040;-74
2022/02/13 00:14:41;;;;;;;8.63;5.53;;;3.90;64.60;;;;;;5012417;28;20388;-73
2022/02/13 00:17:08;;;;;;;10.77;5.30;;;3.90;64.60;;;;;;5009678;28;20029;-73
2022/02/13 00:19:33;;;;;;;12.20;5.80;;;3.90;64.70;;;;;;5010379;28;20084;-74
2022/02/13 00:21:59;;;;;;;8.73;5.57;;;3.90;64.80;;;;;;5011025;28;20447;-73
2022/02/13 00:24:24;;;;;;;8.73;4.93;;;3.90;64.80;;;;;;5011264;28;20029;-74
2022/02/13 00:26:50;;;;;;;10.57;6.15;;;3.90;64.80;;;;;;5010857;28;20084;-74
2022/02/13 00:29:16;;;;;;;11.45;5.70;;;3.90;64.90;;;;;;5011777;28;20034;-73
2022/02/13 00:31:42;;;;;;;11.02;6.88;;;3.90;65.00;;;;;;5009827;28;20108;-73
2022/02/13 00:34:07;;;;;;;13.18;10.68;;;3.80;65.00;;;;;;5011057;28;20022;-74
2022/02/13 00:36:33;;;;;;;14.65;10.52;;;3.80;65.10;;;;;;5011080;28;20034;-73
2022/02/13 00:38:58;;;;;;;14.32;7.10;;;3.80;65.10;;;;;;5011107;28;20439;-73
2022/02/13 00:41:24;;;;;;;13.13;6.60;;;3.80;65.40;;;;;;5010265;28;20034;-74
2022/02/13 00:43:49;;;;;;;7.60;4.53;;;3.70;65.40;;;;;;5011185;28;20528;-74
2022/02/13 00:46:15;;;;;;;8.15;5.25;;;3.70;65.50;;;;;;5011110;28;20125;-74
2022/02/13 00:48:41;;;;;;;10.07;6.20;;;3.70;65.60;;;;;;5009402;28;20068;-74
2022/02/13 00:51:06;;;;;;;9.07;5.63;;;3.60;65.70;;;;;;5010925;28;20037;-74
2022/02/13 00:53:32;;;;;;;11.35;5.57;;;3.60;65.80;;;;;;5009511;28;20113;-73
2022/02/13 00:55:57;;;;;;;10.13;5.57;;;3.60;66.00;;;;;;5010515;28;20367;-74
2022/02/13 00:58:25;;;;;;;12.68;6.30;;;3.60;66.00;;;;;;5009644;28;20029;-73
2022/02/13 01:00:52;;;;;;;12.18;5.70;;;3.60;66.10;;;;;;5010746;28;20160;-74
2022/02/13 01:03:17;;;;;;;8.65;5.30;;;3.50;66.20;;;;;;5003042;28;20097;-73
2022/02/13 01:05:43;;;;;;;9.88;5.07;;;3.50;66.40;;;;;;5011179;28;20125;-74
2022/02/13 01:08:08;;;;;;;12.02;5.38;;;3.50;66.40;;;;;;5009452;28;20503;-74
2022/02/13 01:10:34;;;;;;;10.20;5.57;;;3.40;66.60;;;;;;5011472;28;20053;-74
2022/02/13 01:13:01;;;;;;;12.18;6.00;;;3.40;66.70;;;;;;5009979;28;20028;-74
2022/02/13 01:15:27;;;;;;;9.57;5.43;;;3.30;66.80;;;;;;4990196;28;20026;-75
2022/02/13 01:17:52;;;;;;;10.02;5.30;;;3.30;66.80;;;;;;5007259;28;20543;-75
2022/02/13 01:20:18;;;;;;;8.88;5.10;;;3.40;66.90;;;;;;5010660;28;20038;-74
2022/02/13 01:22:44;;;;;;;11.25;6.22;;;3.30;66.90;;;;;;5010593;28;20028;-74
2022/02/13 01:25:09;;;;;;;9.30;5.85;;;3.30;67.00;;;;;;5009993;28;20025;-74
2022/02/13 01:27:35;;;;;;;10.35;5.80;;;3.30;67.00;;;;;;5009289;28;20484;-74
2022/02/13 01:30:00;;;;;;;9.82;4.90;;;3.30;67.10;;;;;;5010623;28;20396;-72
2022/02/13 01:32:26;;;;;;;11.93;6.20;;;3.30;67.20;;;;;;5010868;28;20026;-72
2022/02/13 01:34:51;;;;;;;9.40;5.50;;;3.30;67.30;;;;;;5009497;28;20022;-72
2022/02/13 01:37:17;;;;;;;8.07;4.72;;;3.20;67.40;;;;;;5009760;28;20017;-72
2022/02/13 01:39:45;;;;;;;10.98;5.72;;;3.20;67.40;;;;;;5010720;28;20041;-73
2022/02/13 01:42:10;;;;;;;9.13;5.13;;;3.20;67.60;;;;;;5008427;28;20049;-73
2022/02/13 01:44:36;;;;;;;11.50;5.72;;;3.10;67.60;;;;;;5011264;28;20715;-73
2022/02/13 01:47:04;;;;;;;9.65;6.18;;;3.10;67.70;;;;;;5010605;28;20022;-73
2022/02/13 01:49:29;;;;;;;13.63;6.32;;;3.10;67.90;;;;;;5011026;28;20080;-73
2022/02/13 01:51:58;;;;;;;11.35;6.30;;;3.10;68.00;;;;;;5010555;28;20025;-73
2022/02/13 01:54:23;;;;;;;10.40;5.65;;;3.10;67.90;;;;;;5009335;28;20472;-73
2022/02/13 01:56:49;;;;;;;10.20;6.07;;;3.10;68.10;;;;;;5008980;28;20041;-73
2022/02/13 01:59:15;;;;;;;9.43;6.05;;;3.10;68.10;;;;;;5009602;28;20029;-73
2022/02/13 02:01:41;;;;;;;9.57;5.95;;;3.00;68.20;;;;;;5009229;28;20114;-73
2022/02/13 02:04:07;;;;;;;10.10;5.63;;;3.00;68.40;;;;;;5010150;28;20372;-72
2022/02/13 02:06:33;;;;;;;12.63;6.53;;;3.00;68.40;;;;;;5007924;28;20030;-73
2022/02/13 02:08:59;;;;;;;11.43;6.80;;;3.00;68.50;;;;;;5009093;28;20038;-73
2022/02/13 02:11:25;;;;;;;13.93;7.28;;;3.00;68.70;;;;;;5009465;28;20022;-73
2022/02/13 02:13:50;;;;;;;11.75;6.15;;;2.90;68.70;;;;;;5009706;28;20022;-73
2022/02/13 02:16:16;;;;;;;9.77;5.82;;;2.90;68.80;;;;;;5009236;28;20049;-73
2022/02/13 02:18:42;;;;;;;7.45;4.82;;;2.80;69.00;;;;;;5009118;28;20026;-72
2022/02/13 02:21:08;;;;;;;9.10;5.53;;;2.90;69.00;;;;;;5010156;28;20030;-73
2022/02/13 02:23:35;;;;;;;11.35;6.70;;;2.90;69.10;;;;;;5007513;28;20614;-73
2022/02/13 02:26:01;;;;;;;10.52;5.70;;;2.90;69.20;;;;;;5008131;28;20045;-72
2022/02/13 02:28:27;;;;;;;10.50;5.65;;;2.90;69.20;;;;;;5006751;28;20033;-73
2022/02/13 02:30:52;;;;;;;11.52;6.60;;;2.90;69.20;;;;;;5007740;28;20500;-73
2022/02/13 02:33:19;;;;;;;8.93;4.80;;;2.90;69.30;;;;;;5008994;28;20109;-73
2022/02/13 02:35:47;;;;;;;9.05;5.82;;;2.90;69.20;;;;;;5009255;28;20018;-73
2022/02/13 02:38:13;;;;;;;9.15;5.47;;;2.90;69.30;;;;;;5006647;28;20026;-73
2022/02/13 02:40:40;;;;;;;9.93;5.40;;;2.90;69.20;;;;;;5008150;28;20030;-73
2022/02/13 02:43:05;;;;;;;9.57;5.57;;;2.90;69.20;;;;;;5008731;28;20057;-73
2022/02/13 02:45:31;;;;;;;12.20;6.65;;;2.90;69.30;;;;;;5008838;28;20069;-74
2022/02/13 02:47:56;;;;;;;11.50;6.65;;;2.80;69.30;;;;;;5007886;28;20591;-73
2022/02/13 02:50:22;;;;;;;11.18;6.10;;;2.80;69.40;;;;;;5009124;28;20362;-73
2022/02/13 02:52:47;;;;;;;11.45;6.30;;;2.80;69.50;;;;;;4999864;28;20084;-74
2022/02/13 02:55:13;;;;;;;10.35;5.78;;;2.80;69.60;;;;;;5009098;28;20034;-73
2022/02/13 02:57:38;;;;;;;8.80;5.32;;;2.80;69.60;;;;;;5008976;28;20037;-73
2022/02/13 03:00:08;;;;;;;10.13;5.50;;;2.80;69.60;;;;;;5008540;28;20104;-73
2022/02/13 03:02:35;;;;;;;9.25;5.05;;;2.80;69.60;;;;;;5008507;28;20026;-73
2022/02/13 03:05:00;;;;;;;9.10;5.75;;;2.80;69.60;;;;;;5009319;28;20065;-74
2022/02/13 03:07:26;;;;;;;10.70;5.85;;;2.80;69.60;;;;;;5007887;28;20520;-73
2022/02/13 03:09:52;;;;;;;8.52;5.45;;;2.80;69.60;;;;;;5009831;28;20030;-73
2022/02/13 03:12:17;;;;;;;13.95;6.53;;;2.80;69.60;;;;;;5008977;28;20026;-72
2022/02/13 03:14:43;;;;;;;9.48;6.13;;;2.70;69.70;;;;;;5008288;28;20482;-72
2022/02/13 03:17:09;;;;;;;12.07;7.15;;;2.80;69.80;;;;;;5007972;28;20026;-72
2022/02/13 03:19:35;;;;;;;11.95;7.00;;;2.70;69.80;;;;;;5007522;28;20034;-72
2022/02/13 03:22:01;;;;;;;10.25;6.15;;;2.70;69.90;;;;;;5006585;28;20026;-73
2022/02/13 03:24:26;;;;;;;9.88;6.10;;;2.70;69.90;;;;;;5008066;28;20400;-72
2022/02/13 03:26:52;;;;;;;12.82;7.15;;;2.60;69.90;;;;;;5008616;28;20021;-71
2022/02/13 03:29:17;;;;;;;10.20;6.50;;;2.70;70.00;;;;;;5008830;28;20105;-72
2022/02/13 03:31:43;;;;;;;14.00;7.22;;;2.60;70.00;;;;;;5007932;28;20026;-73
2022/02/13 03:34:09;;;;;;;10.38;6.80;;;2.60;70.00;;;;;;5008523;28;20036;-72
2022/02/13 03:36:35;;;;;;;10.48;6.18;;;2.60;70.00;;;;;;5007576;28;20046;-73
2022/02/13 03:39:00;;;;;;;11.98;6.82;;;2.60;70.10;;;;;;5008555;28;20030;-73
2022/02/13 03:41:26;;;;;;;11.48;6.13;;;2.60;70.10;;;;;;5009542;28;20030;-73
2022/02/13 03:43:51;;;;;;;11.60;6.40;;;2.60;70.10;;;;;;5009678;28;20106;-73
2022/02/13 03:46:17;;;;;;;11.65;6.38;;;2.60;70.10;;;;;;5008409;28;20588;-73
2022/02/13 03:48:43;;;;;;;10.30;5.40;;;2.60;70.10;;;;;;5007739;28;20048;-73
2022/02/13 03:51:09;;;;;;;9.70;5.25;;;2.70;70.10;;;;;;5009209;28;20028;-73
2022/02/13 03:53:35;;;;;;;10.65;5.70;;;2.70;70.00;;;;;;5008843;28;20037;-73
2022/02/13 03:56:01;;;;;;;6.32;5.03;;;2.70;70.00;;;;;;5012430;28;20026;-73
2022/02/13 03:58:26;;;;;;;9.20;5.90;;;2.70;70.00;;;;;;5011892;28;20030;-73
2022/02/13 04:00:52;;;;;;;6.57;4.75;;;2.70;70.00;;;;;;5022141;28;20513;-73
2022/02/13 04:03:17;;;;;;;8.27;5.53;;;2.70;70.00;;;;;;5028441;28;20022;-73
2022/02/13 04:05:43;;;;;;;7.88;4.72;;;2.70;69.90;;;;;;5012879;28;20033;-74
2022/02/13 04:08:09;;;;;;;9.95;5.65;;;2.80;69.90;;;;;;5012210;28;20026;-73
2022/02/13 04:10:34;;;;;;;6.55;4.53;;;2.80;70.20;;;;;;5011911;28;20570;-73
2022/02/13 04:13:00;;;;;;;8.57;4.75;;;2.80;69.80;;;;;;5013301;28;20030;-73
2022/02/13 04:15:26;;;;;;;10.65;6.03;;;2.80;69.80;;;;;;5012559;28;20026;-73
2022/02/13 04:17:52;;;;;;;10.07;5.63;;;2.80;69.70;;;;;;5009439;28;20109;-73
2022/02/13 04:20:20;;;;;;;9.55;5.55;;;2.80;69.70;;;;;;5011655;28;20120;-73
2022/02/13 04:22:46;;;;;;;9.18;5.78;;;2.90;69.70;;;;;;5012201;28;20029;-73
2022/02/13 04:25:11;;;;;;;7.93;5.30;;;2.90;69.60;;;;;;5012495;28;20381;-72
2022/02/13 04:27:37;;;;;;;9.73;5.30;;;2.80;69.60;;;;;;5011383;28;20026;-73
2022/02/13 04:30:07;;;;;;;8.00;5.18;;;2.90;69.60;;;;;;5011636;28;20112;-73
2022/02/13 04:32:33;;;;;;;10.52;6.65;;;2.90;69.60;;;;;;5012558;28;20018;-73
2022/02/13 04:34:58;;;;;;;9.07;5.45;;;2.90;69.50;;;;;;5012185;28;20026;-74
2022/02/13 04:37:24;;;;;;;9.02;5.28;;;2.90;69.50;;;;;;5010755;28;20105;-74
2022/02/13 04:39:50;;;;;;;9.05;5.45;;;2.90;69.50;;;;;;5009996;28;20022;-73
2022/02/13 04:42:16;;;;;;;9.00;5.57;;;2.90;69.40;;;;;;5011737;28;20105;-74
2022/02/13 04:44:42;;;;;;;9.30;5.32;;;2.90;69.40;;;;;;5010919;28;20539;-74
2022/02/13 04:47:08;;;;;;;9.93;5.53;;;2.90;69.40;;;;;;5010492;28;20038;-73
2022/02/13 04:49:34;;;;;;;8.88;5.85;;;2.90;69.40;;;;;;5010819;28;20088;-72
2022/02/13 04:51:59;;;;;;;8.90;5.60;;;2.80;69.30;;;;;;5011387;28;20479;-73
2022/02/13 04:54:25;;;;;;;8.02;5.18;;;2.80;69.40;;;;;;5011471;28;20029;-73
2022/02/13 04:56:51;;;;;;;8.57;4.50;;;2.80;69.40;;;;;;5010584;28;20030;-74
2022/02/13 04:59:17;;;;;;;10.10;6.15;;;2.80;69.40;;;;;;5010521;28;20453;-73
2022/02/13 05:01:43;;;;;;;10.60;6.15;;;2.80;69.50;;;;;;5011682;28;20034;-74
2022/02/13 05:04:09;;;;;;;9.45;5.00;;;2.80;69.50;;;;;;5011758;28;20535;-74
2022/02/13 05:06:35;;;;;;;6.93;4.47;;;2.80;69.50;;;;;;5010941;28;20472;-74
2022/02/13 05:09:00;;;;;;;9.63;6.03;;;2.90;69.60;;;;;;5011152;28;20030;-73
2022/02/13 05:11:27;;;;;;;11.38;6.70;;;2.80;69.60;;;;;;5010515;28;20117;-75
2022/02/13 05:13:53;;;;;;;9.32;6.32;;;2.70;69.60;;;;;;5011110;28;20439;-74
2022/02/13 05:16:19;;;;;;;8.13;5.93;;;2.70;69.70;;;;;;5011091;28;20030;-74
2022/02/13 05:18:44;;;;;;;9.32;5.70;;;2.70;69.70;;;;;;5010782;28;20108;-73
2022/02/13 05:21:10;;;;;;;7.82;5.20;;;2.70;69.80;;;;;;5010460;28;20042;-72
2022/02/13 05:23:35;;;;;;;8.63;5.18;;;2.70;69.80;;;;;;5010644;28;20045;-73
2022/02/13 05:26:02;;;;;;;7.43;4.90;;;2.70;69.80;;;;;;5010253;28;20010;-72
2022/02/13 05:28:27;;;;;;;11.93;6.82;;;2.80;69.80;;;;;;5010063;28;20036;-72
2022/02/13 05:30:53;;;;;;;9.27;5.65;;;2.70;69.90;;;;;;5010331;28;20030;-72
2022/02/13 05:33:18;;;;;;;6.57;4.53;;;2.70;69.90;;;;;;5010454;28;20033;-73
2022/02/13 05:35:44;;;;;;;8.00;4.75;;;2.70;69.90;;;;;;5010320;28;20029;-73
2022/02/13 05:38:09;;;;;;;7.70;4.63;;;2.70;69.90;;;;;;5008158;28;20088;-73
2022/02/13 05:40:35;;;;;;;10.50;5.65;;;2.70;69.90;;;;;;5009988;28;20038;-73
2022/02/13 05:43:00;;;;;;;8.82;5.10;;;2.70;70.00;;;;;;5010086;28;20022;-74
2022/02/13 05:45:26;;;;;;;7.20;4.47;;;2.70;69.90;;;;;;5009924;28;20423;-74
2022/02/13 05:47:52;;;;;;;8.43;5.47;;;2.70;70.00;;;;;;5008855;28;20052;-74
2022/02/13 05:50:18;;;;;;;8.52;5.05;;;2.70;70.00;;;;;;5008851;28;20057;-74
2022/02/13 05:52:43;;;;;;;7.40;4.63;;;2.70;70.00;;;;;;5009843;28;20108;-74
2022/02/13 05:55:09;;;;;;;9.32;5.95;;;2.60;70.10;;;;;;5009318;28;20030;-74
2022/02/13 05:57:39;;;;;;;9.07;5.15;;;2.60;70.20;;;;;;5009453;28;20018;-74
2022/02/13 06:00:05;;;;;;;11.18;6.78;;;2.60;70.40;;;;;;5010026;28;20083;-74
2022/02/13 06:02:31;;;;;;;10.05;6.25;;;2.60;70.50;;;;;;5007110;28;20026;-74
2022/02/13 06:04:57;;;;;;;9.35;5.15;;;2.50;70.50;;;;;;5009675;28;20116;-74
2022/02/13 06:07:23;;;;;;;7.38;4.82;;;2.50;70.60;;;;;;5009065;28;20036;-73
2022/02/13 06:09:48;;;;;;;8.60;5.45;;;2.50;70.60;;;;;;5009995;28;20026;-74
2022/02/13 06:12:14;;;;;;;9.73;5.85;;;2.50;70.70;;;;;;5009501;28;20037;-74
2022/02/13 06:14:39;;;;;;;8.52;5.88;;;2.40;70.80;;;;;;5010125;28;20037;-73
2022/02/13 06:17:05;;;;;;;7.88;5.55;;;2.50;70.90;;;;;;5008715;28;20026;-72
2022/02/13 06:19:30;;;;;;;9.50;6.53;;;2.50;70.90;;;;;;5009928;28;20385;-73
2022/02/13 06:21:56;;;;;;;7.93;5.03;;;2.50;70.90;;;;;;5010036;28;20030;-73
2022/02/13 06:24:23;;;;;;;8.20;5.20;;;2.40;70.90;;;;;;5010459;28;20030;-73
2022/02/13 06:26:48;;;;;;;9.07;6.40;;;2.50;70.90;;;;;;5010106;28;20026;-73
2022/02/13 06:29:14;;;;;;;10.57;6.45;;;2.40;70.90;;;;;;5010220;28;20388;-74
2022/02/13 06:31:40;;;;;;;10.18;6.15;;;2.50;71.00;;;;;;5009323;28;20029;-74
2022/02/13 06:34:06;;;;;;;7.90;5.28;;;2.40;71.00;;;;;;5008896;28;20041;-73
2022/02/13 06:36:31;;;;;;;9.70;5.72;;;2.50;71.10;;;;;;5008155;28;20022;-73
2022/02/13 06:38:57;;;;;;;9.45;5.10;;;2.50;71.00;;;;;;5009009;28;20033;-72
2022/02/13 06:41:22;;;;;;;6.97;5.05;;;2.50;70.90;;;;;;5008384;28;20045;-73
2022/02/13 06:43:48;;;;;;;8.55;5.53;;;2.50;71.00;;;;;;5009611;28;20026;-73
2022/02/13 06:46:13;;;;;;;7.65;5.60;;;2.50;70.90;;;;;;5009865;28;20037;-74
2022/02/13 06:48:40;;;;;;;7.03;5.10;;;2.50;70.80;;;;;;5009683;28;20661;-75
2022/02/13 06:51:07;;;;;;;8.32;5.85;;;2.50;70.80;;;;;;5009568;28;20524;-73
2022/02/13 06:53:32;;;;;;;9.75;5.38;;;2.60;70.90;;;;;;5010358;28;20456;-74
2022/02/13 06:55:58;;;;;;;9.63;5.38;;;2.60;70.80;;;;;;5010080;28;20057;-74
2022/02/13 06:58:23;;;;;;;8.35;5.43;;;2.60;70.70;;;;;;5007206;28;20026;-74
2022/02/13 07:00:49;;;;;;;8.38;5.60;;;2.60;70.70;;;;;;5009074;28;20041;-74
2022/02/13 07:03:14;;;;;;;7.97;5.57;;;2.70;70.70;;;;;;4999931;28;20034;-74
2022/02/13 07:05:40;;;;;;;8.55;5.50;;;2.70;70.70;;;;;;5005190;28;20029;-75
2022/02/13 07:08:05;;;;;;;9.10;5.28;;;2.70;70.50;;;;;;5003090;28;20352;-74
2022/02/13 07:10:31;;;;;;;8.52;5.38;;;2.70;70.50;;;;;;5006126;28;20037;-77
2022/02/13 07:12:57;;;;;;;8.07;5.45;;;2.80;70.40;;;;;;5008786;28;21245;-75
2022/02/13 07:15:22;;;;;;;7.93;5.70;;;2.80;70.40;;;;;;5006665;28;20115;-74
2022/02/13 07:17:48;;;;;;;9.20;5.32;;;2.80;70.30;;;;;;5007751;28;20028;-74
2022/02/13 07:20:13;;;;;;;8.10;5.20;;;2.90;70.30;;;;;;5005687;28;20034;-73
2022/02/13 07:22:39;;;;;;;8.52;5.47;;;2.90;70.20;;;;;;5006970;28;20021;-74
2022/02/13 07:25:08;;;;;;;9.40;6.22;;;2.90;70.10;;;;;;5007598;28;20053;-74
2022/02/13 07:27:34;;;;;;;7.20;5.00;;;2.90;70.00;;;;;;5006213;28;20547;-74
2022/02/13 07:30:00;;;;;;;6.43;4.35;;;2.90;70.00;;;;;;5008455;28;20384;-74
2022/02/13 07:32:27;;;;;;;7.45;4.70;;;3.00;69.90;;;;;;5008452;28;20018;-74
2022/02/13 07:34:52;;;;;;;9.00;5.65;;;3.00;69.80;;;;;;5010158;28;20137;-74
2022/02/13 07:37:18;;;;;;;9.02;5.80;;;3.00;69.60;;;;;;5006758;28;20053;-74
2022/02/13 07:39:43;;;;;;;6.53;4.70;;;3.10;69.60;;;;;;5008020;28;20030;-74
2022/02/13 07:42:10;;;;;;;6.45;4.47;;;3.10;69.60;;;;;;5007761;28;20025;-73
2022/02/13 07:44:37;;;;;;;9.60;6.07;;;3.10;69.50;;;;;;5007658;28;20060;-73
2022/02/13 07:47:03;;;;;;;10.52;6.32;;;3.20;69.40;;;;;;5006662;28;20144;-74
2022/02/13 07:49:29;;;;;;;9.55;6.28;;;3.20;69.30;;;;;;5007693;28;20030;-73
2022/02/13 07:51:55;;;;;;;8.48;5.57;;;3.20;69.20;;;;;;5005379;28;20385;-74
2022/02/13 07:54:20;;;;;;;8.15;5.50;;;3.30;69.20;;;;;;5008355;28;20103;-74
2022/02/13 07:56:46;;;;;;;9.80;6.40;;;3.30;69.10;;;;;;5009887;28;20032;-75
2022/02/13 07:59:12;;;;;;;9.30;6.60;;;3.30;69.00;;;;;;5002753;28;20145;-75
2022/02/13 08:01:37;;;;;;;11.70;6.55;;;3.40;69.00;;;;;;5009846;28;20037;-76
2022/02/13 08:04:03;;;;;;;7.18;4.95;;;3.40;68.90;;;;;;5007714;28;20036;-74
2022/02/13 08:06:29;;;;;;;9.13;5.70;;;3.40;68.90;;;;;;5006337;28;20125;-74
2022/02/13 08:08:54;;;;;;;7.97;5.68;;;3.40;68.90;;;;;;5005769;28;20112;-74
2022/02/13 08:11:20;;;;;;;9.23;6.20;;;3.50;69.00;;;;;;5006447;28;20030;-74
2022/02/13 08:13:46;;;;;;;8.35;5.88;;;3.50;68.70;;;;;;5008930;28;20076;-74
2022/02/13 08:16:12;;;;;;;6.72;5.10;;;3.60;68.70;;;;;;5002449;28;20437;-74
2022/02/13 08:18:39;;;;;;;6.82;5.10;;;3.60;68.70;;;;;;5009610;28;20041;-72
2022/02/13 08:21:08;;;;;;;11.43;5.95;;;3.70;68.60;;;;;;5006567;28;20038;-74
2022/02/13 08:23:35;;;;;;;7.30;4.85;;;3.70;68.40;;;;;;5010637;28;20037;-73
2022/02/13 08:26:01;;;;;;;7.20;5.10;;;3.80;68.40;;;;;;5009094;28;20022;-75
2022/02/13 08:28:29;;;;;;;7.43;5.40;;;3.80;68.20;;;;;;5008026;28;20022;-74
2022/02/13 08:30:55;;;;;;;9.00;5.97;;;3.80;68.10;;;;;;5008632;28;20037;-74
2022/02/13 08:33:20;;;;;;;8.32;5.38;;;3.90;68.10;;;;;;5006004;28;20030;-74
2022/02/13 08:35:46;;;;;;;9.68;6.60;;;3.90;68.00;;;;;;5008891;28;20022;-74
2022/02/13 08:38:12;;;;;;;7.72;5.70;;;4.00;68.00;;;;;;5007939;28;20041;-77
2022/02/13 08:40:37;;;;;;;9.75;5.97;;;4.00;67.90;;;;;;5008506;28;20034;-74
2022/02/13 08:43:03;;;;;;;7.85;4.90;;;4.10;67.80;;;;;;5009151;28;20500;-74
2022/02/13 08:45:30;;;;;;;8.57;5.22;;;4.20;67.70;;;;;;5009407;28;20022;-74
2022/02/13 08:47:56;;;;;;;7.45;5.10;;;4.20;67.60;;;;;;5006139;28;20377;-74
2022/02/13 08:50:22;;;;;;;7.55;5.00;;;4.30;67.50;;;;;;5009801;28;20030;-74
2022/02/13 08:52:49;;;;;;;7.10;4.97;;;4.40;67.50;;;;;;5009732;28;20046;-74
2022/02/13 08:55:14;;;;;;;10.63;6.18;;;4.50;67.40;;;;;;5014980;28;20054;-74
2022/02/13 08:57:45;;;;;;;8.90;6.03;;;4.50;67.10;;;;;;5006977;28;20098;-74
2022/02/13 09:00:12;;;;;;;6.57;5.45;;;4.40;66.80;;;;;;5014455;28;20057;-74
2022/02/13 09:02:38;;;;;;;9.63;6.20;;;4.40;67.60;;;;;;5015064;28;20018;-74
2022/02/13 09:05:07;;;;;;;9.02;5.97;;;4.50;67.00;;;;;;5011945;28;20021;-74
2022/02/13 09:07:35;;;;;;;8.57;5.82;;;4.50;66.90;;;;;;5007858;28;20022;-73
2022/02/13 09:10:02;;;;;;;8.48;5.55;;;4.50;66.90;;;;;;5010679;28;20033;-75
2022/02/13 09:12:29;;;;;;;7.85;5.47;;;4.60;66.90;;;;;;5011032;28;20029;-74
2022/02/13 09:14:55;;;;;;;4.97;3.80;;;4.70;66.80;;;;;;5011088;28;20084;-74
2022/02/13 09:17:21;;;;;;;9.07;6.13;;;4.80;66.80;;;;;;5010521;28;20026;-75
2022/02/13 09:19:47;;;;;;;7.85;5.10;;;4.90;66.50;;;;;;5010918;28;20400;-74
2022/02/13 09:22:12;;;;;;;7.35;5.32;;;4.90;66.40;;;;;;5010115;28;20041;-74
2022/02/13 09:24:38;;;;;;;8.48;5.63;;;5.00;66.30;;;;;;5010058;28;20026;-74
2022/02/13 09:27:03;;;;;;;9.35;5.28;;;5.00;66.00;;;;;;5006164;28;20017;-74
2022/02/13 09:29:29;;;;;;;7.40;5.95;;;5.10;66.00;;;;;;5010441;28;20507;-73
2022/02/13 09:31:55;;;;;;;8.07;5.43;;;5.10;65.70;;;;;;5008167;28;20017;-75
2022/02/13 09:34:25;;;;;;;7.80;5.50;;;5.30;65.80;;;;;;5009405;28;20030;-75
2022/02/13 09:36:52;;;;;;;9.40;5.97;;;5.40;65.50;;;;;;5006949;28;20108;-76
2022/02/13 09:39:17;;;;;;;8.43;5.03;;;5.40;65.40;;;;;;5010227;28;20026;-75
2022/02/13 09:41:44;;;;;;;10.13;6.00;;;5.50;65.30;;;;;;5010366;28;20057;-75
2022/02/13 09:44:10;;;;;;;7.90;5.40;;;5.60;65.10;;;;;;5011143;28;20057;-75
2022/02/13 09:46:36;;;;;;;9.05;5.22;;;5.60;64.90;;;;;;5009390;28;20041;-75
2022/02/13 09:49:02;;;;;;;8.10;5.57;;;5.60;64.90;;;;;;5009700;28;20010;-74
2022/02/13 09:51:30;;;;;;;7.72;5.43;;;5.70;64.90;;;;;;5008999;28;20108;-76
2022/02/13 09:53:56;;;;;;;8.18;5.93;;;5.70;65.00;;;;;;5004425;28;20412;-75
2022/02/13 09:56:21;;;;;;;8.57;5.82;;;5.70;64.70;;;;;;5009347;28;20033;-74
2022/02/13 09:58:47;;;;;;;7.00;5.28;;;5.70;64.70;;;;;;5012648;28;20022;-74
2022/02/13 10:01:12;;;;;;;8.02;5.80;;;5.80;64.90;;;;;;5015698;28;20033;-73
2022/02/13 10:03:40;;;;;;;7.25;5.65;;;5.80;64.50;;;;;;5011092;28;20025;-74
2022/02/13 10:06:12;;;;;;;8.55;5.22;;;5.90;64.40;;;;;;5009885;28;20021;-73
2022/02/13 10:08:47;;;;;;;8.00;6.07;;;5.90;64.50;;;;;;5009416;28;20022;-73
2022/02/13 10:11:18;;;;;;;8.55;6.40;;;5.90;64.30;;;;;;5007971;28;20027;-75
2022/02/13 10:13:54;;;;;;;8.77;6.20;;;5.90;64.20;;;;;;5014571;28;20545;-74
2022/02/13 10:16:30;;;;;;;7.95;5.82;;;6.00;64.20;;;;;;5014071;28;20048;-73
2022/02/13 10:18:58;;;;;;;9.27;7.00;;;6.00;64.20;;;;;;5019597;28;20037;-73
2022/02/13 10:21:49;;;;;;;10.32;7.43;;;6.00;63.90;;;;;;5008868;28;20050;-74
2022/02/13 10:24:37;;;;;;;8.23;5.60;;;6.00;63.80;;;;;;5005964;28;20435;-75
2022/02/13 10:27:05;;;;;;;8.25;6.00;;;6.10;64.10;;;;;;4994109;28;20163;-73
2022/02/13 10:29:33;;;;;;;8.93;6.00;;;6.10;63.60;;;;;;5007988;28;20026;-75
2022/02/13 10:32:16;;;;;;;7.55;5.38;;;6.20;63.70;;;;;;5006837;28;20500;-75
2022/02/13 10:35:05;;;;;;;7.22;4.93;;;6.30;63.80;;;;;;5000778;28;20374;-74
2022/02/13 10:37:42;;;;;;;8.13;5.65;;;6.40;63.70;;;;;;5002534;28;20031;-74
2022/02/13 10:40:19;;;;;;;8.82;6.30;;;6.40;63.40;;;;;;5023173;28;20045;-73
2022/02/13 10:42:46;;;;;;;9.60;6.25;;;6.40;63.40;;;;;;5006785;28;20033;-74
2022/02/13 10:45:25;;;;;;;9.73;5.47;;;6.50;63.40;;;;;;5008242;28;20026;-74
2022/02/13 10:47:58;;;;;;;7.65;5.50;;;6.50;63.30;;;;;;5003177;28;20022;-74
2022/02/13 10:50:25;;;;;;;11.10;6.25;;;6.60;63.50;;;;;;5005836;28;20140;-76
2022/02/13 10:52:53;;;;;;;6.68;4.68;;;6.60;63.10;;;;;;5007344;28;20068;-77
2022/02/13 10:55:19;;;;;;;6.47;4.65;;;6.70;63.40;;;;;;5005215;28;20033;-75
2022/02/13 10:57:45;;;;;;;7.65;5.95;;;6.80;63.50;;;;;;5002644;28;20026;-81
2022/02/13 11:00:13;;;;;;;8.15;5.97;;;6.90;63.00;;;;;;5005557;28;20083;-75
2022/02/13 11:02:41;;;;;;;8.60;4.97;;;6.90;62.70;;;;;;5003676;28;20109;-74
2022/02/13 11:05:08;;;;;;;8.15;5.60;;;7.10;62.90;;;;;;5010554;28;20022;-74
2022/02/13 11:07:43;;;;;;;8.52;5.55;;;7.10;62.50;;;;;;5009483;28;20030;-75
2022/02/13 11:10:15;;;;;;;9.45;6.05;;;7.20;62.20;;;;;;5010050;28;20042;-77
2022/02/13 11:12:43;;;;;;;8.38;5.70;;;7.30;62.10;;;;;;5009891;28;20017;-75
2022/02/13 11:15:27;;;;;;;7.18;5.25;;;7.40;62.20;;;;;;5009285;28;20366;-75
2022/02/13 11:18:03;;;;;;;6.10;4.28;;;7.50;61.90;;;;;;5008179;28;20026;-75
2022/02/13 11:20:30;;;;;;;8.35;5.45;;;7.60;61.80;;;;;;5009726;28;20419;-75
2022/02/13 11:23:23;;;;;;;6.85;5.28;;;7.70;61.50;;;;;;5009653;28;20466;-74
2022/02/13 11:26:00;;;;;;;7.80;4.45;;;7.70;60.90;;;;;;5004203;28;20077;-74
2022/02/13 11:28:46;;;;;;;7.95;4.80;;;7.90;60.90;;;;;;4999503;28;20030;-75
2022/02/13 11:31:40;;;;;;;7.25;4.85;;;7.90;60.60;;;;;;5011094;28;20029;-73
2022/02/13 11:34:25;;;;;;;6.75;5.03;;;8.00;60.40;;;;;;5015337;28;20033;-74
2022/02/13 11:36:58;;;;;;;5.40;4.20;;;8.00;60.50;;;;;;5018507;28;20026;-74
2022/02/13 11:39:30;;;;;;;6.63;4.45;;;8.10;60.40;;;;;;5018863;28;20099;-74
2022/02/13 11:41:58;;;;;;;7.22;4.75;;;8.30;60.60;;;;;;5019995;28;20025;-74
2022/02/13 11:44:39;;;;;;;5.95;4.72;;;8.40;60.40;;;;;;5019769;28;20076;-75
2022/02/13 11:47:08;;;;;;;6.70;4.45;;;8.50;60.40;;;;;;5010144;28;20044;-74
2022/02/13 11:50:11;;;;;;;4.80;3.95;;;8.60;60.40;;;;;;5005016;28;20124;-78
2022/02/13 11:52:40;;;;;;;7.05;4.32;;;8.70;60.40;;;;;;5011333;28;20102;-77
2022/02/13 11:55:08;;;;;;;6.05;4.80;;;8.80;60.60;;;;;;5014057;28;20032;-77
2022/02/13 11:57:33;;;;;;;5.82;4.30;;;8.90;60.70;;;;;;5023395;28;20029;-77
2022/02/13 11:59:59;;;;;;;6.78;4.68;;;9.00;60.70;;;;;;5010772;28;20042;-75
2022/02/13 12:02:30;;;;;;;7.05;5.13;;;9.00;60.60;;;;;;5011780;28;20392;-74
2022/02/13 12:05:09;;;;;;;5.53;4.40;;;9.10;60.60;;;;;;5016701;28;20033;-76
2022/02/13 12:07:38;;;;;;;8.05;5.68;;;9.20;60.70;;;;;;5010598;28;20507;-76
2022/02/13 12:10:12;;;;;;;7.03;4.20;;;9.60;60.00;;;;;;5007043;28;20490;-76
2022/02/13 12:12:40;;;;;;;6.28;4.50;;;10.30;58.80;;;;;;5007883;28;20028;-75
2022/02/13 12:15:06;;;;;;;5.90;4.38;;;11.00;57.00;;;;;;5011238;28;20113;-75
2022/02/13 12:17:33;;;;;;;6.32;4.72;;;11.40;56.10;;;;;;5009527;28;20022;-76
2022/02/13 12:20:04;;;;;;;5.18;4.00;;;11.90;55.40;;;;;;5011257;28;20049;-75
2022/02/13 12:22:31;;;;;;;5.90;4.57;;;12.00;54.70;;;;;;5010013;28;20026;-75
2022/02/13 12:25:01;;;;;;;4.78;3.40;;;11.90;54.50;;;;;;5007577;28;20019;-75
2022/02/13 12:27:27;;;;;;;5.63;4.25;;;12.00;54.60;;;;;;5007737;28;20029;-76
2022/02/13 12:30:00;;;;;;;8.15;5.60;;;11.30;55.30;;;;;;5002443;28;20022;-75
2022/02/13 12:32:33;;;;;;;6.28;4.25;;;10.90;56.20;;;;;;5002502;28;20026;-75
2022/02/13 12:35:09;;;;;;;6.43;4.45;;;10.70;57.20;;;;;;5005935;28;20484;-76
2022/02/13 12:37:40;;;;;;;6.88;4.10;;;10.60;57.40;;;;;;5007490;28;20467;-77
2022/02/13 12:40:12;;;;;;;6.25;4.57;;;10.50;57.90;;;;;;5003559;28;20042;-75
2022/02/13 12:42:40;;;;;;;5.97;4.38;;;10.60;58.00;;;;;;5004770;28;20041;-75
2022/02/13 12:45:11;;;;;;;6.13;4.47;;;10.70;58.10;;;;;;5007929;28;20028;-74
2022/02/13 12:47:40;;;;;;;8.50;5.10;;;10.70;57.80;;;;;;5007401;28;20022;-73
2022/02/13 12:50:11;;;;;;;5.25;4.00;;;10.60;57.60;;;;;;5006679;28;20488;-73
2022/02/13 12:52:38;;;;;;;7.00;5.27;;;10.60;57.60;;;;;;5004792;28;20659;-73